createdAt,value
2022-11-10T00:02:08.620Z,5.20
2022-11-10T00:04:55.307Z,5.23
2022-11-10T00:07:41.170Z,5.77
2022-11-10T00:10:26.654Z,5.23
2022-11-10T00:13:12.454Z,5.10
2022-11-10T00:16:21.344Z,5.10
2022-11-10T00:19:06.423Z,5.13
2022-11-10T00:21:51.828Z,5.80
2022-11-10T00:24:37.136Z,6.00
2022-11-10T00:27:22.512Z,6.30
2022-11-10T00:30:08.147Z,5.90
2022-11-10T00:32:53.223Z,6.57
2022-11-10T00:35:38.670Z,5.70
2022-11-10T00:38:31.057Z,6.60
2022-11-10T00:41:16.120Z,6.10
2022-11-10T00:44:01.611Z,6.10
2022-11-10T00:46:46.602Z,6.67
2022-11-10T00:49:32.167Z,6.30
2022-11-10T00:52:17.162Z,6.30
2022-11-10T00:55:02.449Z,6.80
2022-11-10T00:57:47.867Z,6.40
2022-11-10T01:00:33.631Z,6.43
2022-11-10T01:03:19.271Z,7.20
2022-11-10T01:06:06.194Z,6.50
2022-11-10T01:08:51.231Z,6.10
2022-11-10T01:11:36.358Z,6.07
2022-11-10T01:14:21.595Z,6.57
2022-11-10T01:17:06.973Z,6.87
2022-11-10T01:19:52.207Z,6.27
2022-11-10T01:22:38.760Z,6.30
2022-11-10T01:25:24.273Z,6.30
2022-11-10T01:28:09.494Z,5.83
2022-11-10T01:31:18.168Z,6.57
2022-11-10T01:34:03.147Z,6.63
2022-11-10T01:36:51.350Z,7.00
2022-11-10T01:39:36.467Z,7.50
2022-11-10T01:42:38.093Z,7.53
2022-11-10T01:45:23.931Z,6.93
2022-11-10T01:48:30.050Z,7.33
2022-11-10T01:51:28.198Z,7.67
2022-11-10T01:54:23.714Z,7.70
2022-11-10T01:57:11.769Z,7.80
2022-11-10T01:59:56.927Z,7.53
2022-11-10T02:03:35.003Z,7.93
2022-11-10T02:06:23.288Z,7.77
2022-11-10T02:09:08.639Z,8.17
2022-11-10T02:11:57.203Z,8.57
2022-11-10T02:14:42.505Z,8.73
2022-11-10T02:17:27.579Z,8.80
2022-11-10T02:20:21.390Z,8.93
2022-11-10T02:23:31.509Z,8.67
2022-11-10T02:26:21.119Z,9.17
2022-11-10T02:29:11.460Z,9.40
2022-11-10T02:31:59.741Z,8.43
2022-11-10T02:34:45.115Z,9.77
2022-11-10T02:37:30.470Z,9.60
2022-11-10T02:40:15.808Z,8.80
2022-11-10T02:43:01.414Z,9.00
2022-11-10T02:45:46.656Z,8.77
2022-11-10T02:48:32.104Z,9.40
2022-11-10T02:51:17.812Z,9.83
2022-11-10T02:54:03.120Z,9.90
2022-11-10T02:56:50.643Z,8.90
2022-11-10T02:59:35.764Z,10.13
2022-11-10T03:02:21.189Z,10.73
2022-11-10T03:05:06.684Z,10.87
2022-11-10T03:07:56.277Z,10.80
2022-11-10T03:10:41.304Z,10.83
2022-11-10T03:13:58.929Z,11.43
2022-11-10T03:16:44.607Z,10.63
2022-11-10T03:19:30.064Z,10.83
2022-11-10T03:22:15.692Z,11.33
2022-11-10T03:25:01.053Z,12.70
2022-11-10T03:27:46.594Z,11.40
2022-11-10T03:30:32.079Z,12.00
2022-11-10T03:33:17.536Z,12.33
2022-11-10T03:36:03.089Z,12.00
2022-11-10T03:38:48.648Z,12.10
2022-11-10T03:41:36.464Z,11.70
2022-11-10T03:44:21.675Z,13.20
2022-11-10T03:47:06.972Z,12.53
2022-11-10T03:49:52.445Z,12.47
2022-11-10T03:52:43.246Z,12.97
2022-11-10T03:55:28.452Z,12.80
2022-11-10T03:58:13.800Z,12.00
2022-11-10T04:00:59.204Z,13.43
2022-11-10T04:03:50.172Z,12.70
2022-11-10T04:06:55.195Z,12.77
2022-11-10T04:09:40.624Z,13.37
2022-11-10T04:12:44.545Z,13.07
2022-11-10T04:15:42.098Z,12.90
2022-11-10T04:18:30.166Z,13.10
2022-11-10T04:21:17.228Z,13.50
2022-11-10T04:24:03.025Z,13.20
2022-11-10T04:26:56.490Z,12.80
2022-11-10T04:29:41.597Z,13.07
2022-11-10T04:32:26.969Z,13.87
2022-11-10T04:35:13.265Z,12.50
2022-11-10T04:37:58.588Z,12.20
2022-11-10T04:40:43.974Z,13.90
2022-11-10T04:43:30.014Z,14.73
2022-11-10T04:46:31.638Z,14.90
2022-11-10T04:49:19.582Z,15.10
2022-11-10T04:52:05.171Z,14.10
2022-11-10T04:54:50.566Z,14.30
2022-11-10T04:57:36.203Z,15.20
2022-11-10T05:00:21.753Z,13.73
2022-11-10T05:03:09.273Z,13.90
2022-11-10T05:05:54.525Z,15.40
2022-11-10T05:08:40.897Z,14.70
2022-11-10T05:11:26.413Z,14.70
2022-11-10T05:14:11.793Z,14.00
2022-11-10T05:16:57.005Z,14.87
2022-11-10T05:19:42.466Z,14.20
2022-11-10T05:22:27.902Z,14.47
2022-11-10T05:25:13.385Z,14.10
2022-11-10T05:27:58.694Z,14.40
2022-11-10T05:30:44.283Z,14.10
2022-11-10T05:33:29.958Z,15.27
2022-11-10T05:36:15.246Z,14.03
2022-11-10T05:39:00.674Z,14.50
2022-11-10T05:41:47.387Z,16.23
2022-11-10T05:44:34.877Z,15.60
2022-11-10T05:47:22.728Z,16.80
2022-11-10T05:50:09.101Z,15.40
2022-11-10T05:52:55.306Z,15.30
2022-11-10T05:55:40.821Z,17.00
2022-11-10T05:58:26.081Z,17.63
2022-11-10T06:01:11.500Z,16.33
2022-11-10T06:03:56.984Z,17.33
2022-11-10T06:06:42.379Z,15.13
2022-11-10T06:09:27.678Z,16.33
2022-11-10T06:12:13.064Z,16.50
2022-11-10T06:14:58.487Z,16.37
2022-11-10T06:17:44.068Z,15.97
2022-11-10T06:20:29.621Z,17.30
2022-11-10T06:23:15.167Z,16.50
2022-11-10T06:26:00.253Z,15.63
2022-11-10T06:28:45.575Z,15.90
2022-11-10T06:31:30.929Z,15.40
2022-11-10T06:34:16.430Z,16.10
2022-11-10T06:37:01.982Z,15.40
2022-11-10T06:39:47.533Z,16.07
2022-11-10T06:42:33.431Z,16.20
2022-11-10T06:45:18.901Z,14.80
2022-11-10T06:48:11.875Z,15.97
2022-11-10T06:51:03.445Z,16.60
2022-11-10T06:53:48.705Z,15.77
2022-11-10T06:56:34.973Z,17.20
2022-11-10T06:59:20.276Z,16.23
2022-11-10T07:02:06.267Z,17.50
2022-11-10T07:04:51.243Z,16.43
2022-11-10T07:07:36.594Z,15.20
2022-11-10T07:10:21.864Z,15.17
2022-11-10T07:13:07.037Z,16.63
2022-11-10T07:15:52.598Z,15.27
2022-11-10T07:18:37.870Z,15.03
2022-11-10T07:21:23.188Z,15.20
2022-11-10T07:24:08.917Z,16.13
2022-11-10T07:26:54.003Z,14.70
2022-11-10T07:29:39.869Z,14.77
2022-11-10T07:32:25.234Z,13.47
2022-11-10T07:35:10.775Z,14.37
2022-11-10T07:38:04.585Z,13.80
2022-11-10T07:40:53.932Z,14.40
2022-11-10T07:43:38.995Z,12.23
2022-11-10T07:46:24.303Z,14.47
2022-11-10T07:49:09.813Z,13.70
2022-11-10T07:51:57.874Z,14.70
2022-11-10T07:54:43.180Z,12.33
2022-11-10T07:57:28.425Z,13.17
2022-11-10T08:00:16.805Z,12.67
2022-11-10T08:03:06.917Z,12.60
2022-11-10T08:05:52.174Z,12.57
2022-11-10T08:08:37.629Z,11.63
2022-11-10T08:11:23.054Z,11.63
2022-11-10T08:14:08.378Z,12.17
2022-11-10T08:17:00.371Z,12.37
2022-11-10T08:19:45.833Z,13.80
2022-11-10T08:22:31.295Z,13.23
2022-11-10T08:25:16.489Z,13.13
2022-11-10T08:28:07.978Z,14.40
2022-11-10T08:30:53.628Z,14.13
2022-11-10T08:33:38.678Z,14.10
2022-11-10T08:36:24.169Z,14.17
2022-11-10T08:39:09.704Z,13.90
2022-11-10T08:41:55.154Z,14.30
2022-11-10T08:44:40.718Z,14.20
2022-11-10T08:47:25.982Z,13.97
2022-11-10T08:50:14.295Z,15.30
2022-11-10T08:53:04.372Z,14.23
2022-11-10T08:55:50.310Z,13.37
2022-11-10T08:58:47.315Z,14.27
2022-11-10T09:01:35.432Z,14.13
2022-11-10T09:04:21.075Z,14.77
2022-11-10T09:07:06.209Z,14.03
2022-11-10T09:10:01.482Z,14.50
2022-11-10T09:12:52.030Z,13.60
2022-11-10T09:15:37.822Z,13.67
2022-11-10T09:18:22.948Z,14.10
2022-11-10T09:21:12.961Z,13.43
2022-11-10T09:23:58.446Z,13.90
2022-11-10T09:26:47.675Z,13.33
2022-11-10T09:29:33.011Z,12.47
2022-11-10T09:32:18.538Z,13.30
2022-11-10T09:35:04.122Z,12.40
2022-11-10T09:37:49.329Z,12.17
2022-11-10T09:41:02.934Z,12.27
2022-11-10T09:44:13.062Z,11.47
2022-11-10T09:47:04.906Z,11.03
2022-11-10T09:49:56.028Z,11.40
2022-11-10T09:52:45.198Z,10.90
2022-11-10T09:55:35.048Z,10.67
2022-11-10T09:58:23.685Z,10.53
2022-11-10T10:01:25.314Z,10.20
2022-11-10T10:04:54.214Z,9.60
2022-11-10T10:08:00.947Z,8.87
2022-11-10T10:11:21.747Z,8.20
2022-11-10T10:14:13.999Z,7.57
2022-11-10T10:17:24.772Z,7.70
2022-11-10T10:20:27.415Z,7.13
2022-11-10T10:23:16.748Z,6.97
2022-11-10T10:26:02.349Z,6.93
2022-11-10T10:29:38.779Z,6.43
2022-11-10T10:32:23.871Z,6.73
2022-11-10T10:35:29.675Z,6.47
2022-11-10T10:38:37.924Z,6.13
2022-11-10T10:41:28.579Z,6.13
2022-11-10T10:44:16.663Z,5.33
2022-11-10T10:47:02.989Z,5.97
2022-11-10T10:49:48.055Z,5.10
2022-11-10T10:52:33.508Z,5.30
2022-11-10T10:55:18.693Z,5.13
2022-11-10T10:58:22.897Z,4.77
2022-11-10T11:01:14.578Z,5.00
2022-11-10T11:04:01.015Z,4.00
2022-11-10T11:07:03.976Z,4.23
2022-11-10T11:09:51.125Z,4.30
2022-11-10T11:12:36.972Z,3.50
2022-11-10T11:15:28.468Z,3.87
2022-11-10T11:18:15.868Z,3.40
2022-11-10T11:21:07.060Z,3.53
2022-11-10T11:24:28.193Z,3.00
2022-11-10T11:27:47.845Z,3.37
2022-11-10T11:31:02.580Z,3.80
2022-11-10T11:34:01.913Z,3.20
2022-11-10T11:37:19.176Z,3.93
2022-11-10T11:40:05.612Z,2.93
2022-11-10T11:43:03.200Z,3.20
2022-11-10T11:46:09.551Z,2.80
2022-11-10T11:49:00.545Z,3.10
2022-11-10T11:52:02.857Z,2.57
2022-11-10T11:55:01.060Z,3.03
2022-11-10T11:58:12.678Z,2.97
2022-11-10T12:01:07.582Z,2.83
2022-11-10T12:04:36.741Z,3.40
2022-11-10T12:07:40.534Z,2.90
2022-11-10T12:10:44.774Z,3.07
2022-11-10T12:13:48.693Z,3.33
2022-11-10T12:16:35.152Z,3.27
2022-11-10T12:19:34.119Z,3.37
2022-11-10T12:22:48.836Z,2.97
2022-11-10T12:26:15.245Z,2.77
2022-11-10T12:29:12.581Z,3.00
2022-11-10T12:32:14.882Z,3.17
2022-11-10T12:35:11.353Z,3.97
2022-11-10T12:38:05.579Z,2.77
2022-11-10T12:40:54.294Z,3.50
2022-11-10T12:43:42.473Z,3.70
2022-11-10T12:46:27.802Z,3.93
2022-11-10T12:49:38.340Z,2.50
2022-11-10T12:52:52.779Z,3.27
2022-11-10T12:55:57.332Z,3.80
2022-11-10T12:58:42.374Z,3.00
2022-11-10T13:01:28.163Z,3.10
2022-11-10T13:04:14.900Z,2.33
2022-11-10T13:07:02.470Z,3.00
2022-11-10T13:09:50.471Z,3.50
2022-11-10T13:12:35.886Z,3.17
2022-11-10T13:15:39.511Z,3.37
2022-11-10T13:18:44.580Z,2.53
2022-11-10T13:21:53.830Z,3.53
2022-11-10T13:24:43.151Z,2.60
2022-11-10T13:27:35.841Z,3.63
2022-11-10T13:30:57.035Z,2.73
2022-11-10T13:34:04.797Z,3.00
2022-11-10T13:36:57.538Z,3.10
2022-11-10T13:39:45.501Z,3.50
2022-11-10T13:42:30.897Z,3.10
2022-11-10T13:45:45.669Z,2.97
2022-11-10T13:49:01.312Z,2.57
2022-11-10T13:52:08.484Z,3.13
2022-11-10T13:55:20.097Z,2.80
2022-11-10T13:58:09.074Z,2.30
2022-11-10T14:01:16.224Z,2.63
2022-11-10T14:04:03.030Z,2.70
2022-11-10T14:06:55.585Z,3.10
2022-11-10T14:09:50.092Z,3.03
2022-11-10T14:12:39.700Z,2.60
2022-11-10T14:15:34.723Z,2.47
2022-11-10T14:18:23.551Z,2.70
2022-11-10T14:21:20.821Z,2.60
2022-11-10T14:24:20.392Z,2.50
2022-11-10T14:27:11.635Z,2.60
2022-11-10T14:30:10.921Z,3.00
2022-11-10T14:33:11.825Z,2.60
2022-11-10T14:36:02.279Z,2.60
2022-11-10T14:38:47.993Z,2.40
2022-11-10T14:41:32.877Z,2.87
2022-11-10T14:44:26.702Z,3.00
2022-11-10T14:47:26.488Z,2.93
2022-11-10T14:50:14.547Z,2.87
2022-11-10T14:53:18.562Z,2.40
2022-11-10T14:56:06.765Z,3.10
2022-11-10T14:58:52.501Z,2.70
2022-11-10T15:01:40.627Z,3.10
2022-11-10T15:04:31.771Z,2.90
2022-11-10T15:07:17.782Z,3.20
2022-11-10T15:10:42.304Z,2.80
2022-11-10T15:13:27.398Z,2.57
2022-11-10T15:16:33.603Z,2.80
2022-11-10T15:19:34.569Z,3.23
2022-11-10T15:22:35.509Z,2.60
2022-11-10T15:25:35.716Z,3.17
2022-11-10T15:28:34.666Z,2.80
2022-11-10T15:31:26.515Z,3.30
2022-11-10T15:34:41.555Z,3.30
2022-11-10T15:37:31.130Z,3.30
2022-11-10T15:40:31.578Z,3.40
2022-11-10T15:43:27.008Z,2.60
2022-11-10T15:46:18.522Z,3.60
2022-11-10T15:49:04.068Z,4.20
2022-11-10T15:51:53.110Z,3.33
2022-11-10T15:54:38.559Z,3.13
2022-11-10T15:57:23.966Z,3.20
2022-11-10T16:00:19.665Z,2.90
2022-11-10T16:03:05.718Z,3.20
2022-11-10T16:05:51.362Z,3.00
2022-11-10T16:08:40.511Z,2.80
2022-11-10T16:11:26.807Z,2.80
2022-11-10T16:14:42.566Z,4.83
2022-11-10T16:17:28.134Z,6.00
2022-11-10T16:20:18.654Z,4.03
2022-11-10T16:23:03.773Z,3.50
2022-11-10T16:26:05.838Z,3.30
2022-11-10T16:28:59.980Z,3.23
2022-11-10T16:31:57.096Z,3.30
2022-11-10T16:34:43.686Z,4.20
2022-11-10T16:37:44.328Z,3.23
2022-11-10T16:40:37.772Z,3.30
2022-11-10T16:43:34.327Z,3.63
2022-11-10T16:46:21.060Z,4.00
2022-11-10T16:49:10.881Z,4.10
2022-11-10T16:52:23.815Z,4.93
2022-11-10T16:55:14.385Z,4.10
2022-11-10T16:58:00.334Z,3.80
2022-11-10T17:00:56.247Z,3.80
2022-11-10T17:03:50.788Z,4.10
2022-11-10T17:06:52.986Z,9.90
2022-11-10T17:09:43.622Z,5.27
2022-11-10T17:12:28.857Z,4.80
2022-11-10T17:15:30.707Z,4.17
2022-11-10T17:18:23.179Z,3.83
2022-11-10T17:21:12.474Z,5.63
2022-11-10T17:24:03.083Z,4.57
2022-11-10T17:26:48.658Z,5.13
2022-11-10T17:29:41.758Z,4.80
2022-11-10T17:33:10.011Z,4.60
2022-11-10T17:36:07.956Z,6.00
2022-11-10T17:38:57.755Z,4.63
2022-11-10T17:41:43.405Z,4.77
2022-11-10T17:44:29.171Z,5.77
2022-11-10T17:48:05.242Z,7.07
2022-11-10T17:51:26.943Z,4.40
2022-11-10T17:58:42.309Z,3.53
2022-11-10T18:01:48.328Z,4.00
2022-11-10T18:16:38.387Z,3.47
2022-11-10T18:19:23.645Z,3.10
2022-11-10T18:22:09.129Z,3.30
2022-11-10T18:24:54.610Z,3.20
2022-11-10T18:27:40.009Z,4.00
2022-11-10T18:30:25.366Z,3.33
2022-11-10T18:33:11.923Z,3.63
2022-11-10T18:36:00.381Z,3.30
2022-11-10T18:38:47.619Z,3.67
2022-11-10T18:41:53.680Z,3.70
2022-11-10T18:44:39.475Z,3.40
2022-11-10T18:47:24.398Z,3.40
2022-11-10T18:50:10.019Z,2.87
2022-11-10T18:52:55.083Z,3.83
2022-11-10T18:55:45.208Z,3.13
2022-11-10T18:58:31.045Z,3.83
2022-11-10T19:01:16.866Z,4.03
2022-11-10T19:04:02.380Z,3.50
2022-11-10T19:06:49.596Z,4.20
2022-11-10T19:09:35.092Z,3.40
2022-11-10T19:12:26.346Z,3.27
2022-11-10T19:15:11.925Z,3.40
2022-11-10T19:17:57.285Z,3.20
2022-11-10T19:20:42.679Z,3.07
2022-11-10T19:23:28.263Z,3.20
2022-11-10T19:26:19.408Z,2.80
2022-11-10T19:29:07.450Z,3.20
2022-11-10T19:31:52.660Z,3.00
2022-11-10T19:34:37.945Z,3.73
2022-11-10T19:37:23.216Z,3.30
2022-11-10T19:40:09.039Z,3.80
2022-11-10T19:42:54.399Z,3.63
2022-11-10T19:45:39.855Z,3.00
2022-11-10T19:48:25.393Z,3.90
2022-11-10T19:51:13.556Z,3.50
2022-11-10T19:54:04.968Z,5.60
2022-11-10T19:56:50.253Z,4.97
2022-11-10T19:59:35.781Z,2.97
2022-11-10T20:02:21.157Z,3.50
2022-11-10T20:05:12.359Z,5.27
2022-11-10T20:08:12.638Z,3.10
2022-11-10T20:11:06.120Z,3.57
2022-11-10T20:13:54.968Z,3.60
2022-11-10T20:16:40.565Z,3.50
2022-11-10T20:19:26.238Z,3.70
2022-11-10T20:22:12.850Z,3.83
2022-11-10T20:24:58.318Z,3.20
2022-11-10T20:27:43.975Z,3.37
2022-11-10T20:30:29.585Z,4.73
2022-11-10T20:33:14.770Z,3.40
2022-11-10T20:36:07.992Z,4.00
2022-11-10T20:38:54.885Z,3.90
2022-11-10T20:41:39.864Z,3.50
2022-11-10T20:44:25.408Z,3.03
2022-11-10T20:47:10.817Z,3.10
2022-11-10T20:49:56.251Z,2.80
2022-11-10T20:52:47.268Z,3.50
2022-11-10T20:55:52.674Z,2.87
2022-11-10T20:58:37.888Z,3.47
2022-11-10T21:01:23.594Z,3.73
2022-11-10T21:04:08.961Z,3.27
2022-11-10T21:06:54.651Z,3.43
2022-11-10T21:09:39.947Z,3.40
2022-11-10T21:12:43.867Z,3.00
2022-11-10T21:15:29.074Z,3.30
2022-11-10T21:18:14.680Z,3.50
2022-11-10T21:21:00.099Z,3.57
2022-11-10T21:23:45.207Z,4.33
2022-11-10T21:26:31.862Z,3.70
2022-11-10T21:29:16.920Z,3.60
2022-11-10T21:32:02.230Z,3.53
2022-11-10T21:34:47.520Z,3.37
2022-11-10T21:37:32.955Z,3.50
2022-11-10T21:40:18.364Z,3.27
2022-11-10T21:43:03.826Z,3.13
2022-11-10T21:45:49.159Z,3.03
2022-11-10T21:48:35.216Z,3.13
2022-11-10T21:51:21.259Z,3.37
2022-11-10T21:54:06.507Z,3.47
2022-11-10T21:56:54.173Z,3.80
2022-11-10T21:59:40.034Z,3.10
2022-11-10T22:02:26.004Z,3.33
2022-11-10T22:05:13.915Z,3.50
2022-11-10T22:07:59.288Z,3.63
2022-11-10T22:11:03.368Z,3.40
2022-11-10T22:14:08.127Z,3.17
2022-11-10T22:17:11.982Z,3.30
2022-11-10T22:19:57.419Z,3.67
2022-11-10T22:22:44.181Z,3.50
2022-11-10T22:25:29.270Z,3.10
2022-11-10T22:28:14.678Z,3.60
2022-11-10T22:31:03.174Z,3.90
2022-11-10T22:33:48.648Z,3.47
2022-11-10T22:36:34.094Z,3.43
2022-11-10T22:39:19.446Z,3.70
2022-11-10T22:42:30.233Z,3.43
2022-11-10T22:45:15.818Z,3.33
2022-11-10T22:48:19.687Z,3.10
2022-11-10T22:51:04.782Z,3.60
2022-11-10T22:53:50.661Z,3.17
2022-11-10T22:56:36.267Z,3.40
2022-11-10T22:59:21.486Z,4.07
2022-11-10T23:02:07.078Z,3.33
2022-11-10T23:04:52.686Z,3.10
2022-11-10T23:07:38.060Z,3.27
2022-11-10T23:10:23.405Z,3.77
2022-11-10T23:13:08.779Z,3.40
2022-11-10T23:15:58.632Z,3.80
2022-11-10T23:18:45.881Z,3.10
2022-11-10T23:21:31.267Z,3.03
2022-11-10T23:24:22.374Z,3.23
2022-11-10T23:27:07.952Z,3.40
2022-11-10T23:29:53.365Z,3.30
2022-11-10T23:32:38.914Z,3.50
2022-11-10T23:35:24.762Z,3.30
2022-11-10T23:38:09.830Z,3.40
2022-11-10T23:40:56.347Z,3.33
2022-11-10T23:43:42.353Z,3.53
2022-11-10T23:46:27.818Z,3.37
2022-11-10T23:49:13.182Z,3.30
2022-11-10T23:51:58.515Z,3.40
2022-11-10T23:54:43.860Z,2.97
2022-11-10T23:57:29.236Z,3.60
